Time;durP1;ratioP1;P1;durP2;ratioP2;P2;SDS_P1;SDS_P2;PMS_P1;PMS_P2;Temp;Humidity;BMP_temperature;BMP_pressure;BME280_temperature;BME280_humidity;BME280_pressure;Samples;Min_cycle;Max_cycle;Signal;HPM_P1;HPM_P2
2023/12/26 00:01:31;;;;;;;2.30;1.20;;;12.60;27.00;;;;;;10492091;28;20230;-75
2023/12/26 00:06:34;;;;;;;1.93;1.20;;;12.60;27.00;;;;;;10491930;28;20274;-75
2023/12/26 00:11:42;;;;;;;1.77;1.30;;;12.50;27.10;;;;;;10491794;28;20228;-75
2023/12/26 00:16:47;;;;;;;1.13;1.03;;;12.50;27.00;;;;;;10491517;28;20231;-75
2023/12/26 00:21:50;;;;;;;1.37;1.20;;;12.50;27.00;;;;;;10491618;28;20281;-75
2023/12/26 00:26:53;;;;;;;2.07;1.07;;;12.40;27.10;;;;;;10490871;28;20228;-75
2023/12/26 00:31:58;;;;;;;1.37;1.00;;;12.40;27.20;;;;;;10491083;28;20232;-75
2023/12/26 00:37:02;;;;;;;1.70;1.00;;;12.30;27.10;;;;;;10490617;28;20228;-75
2023/12/26 00:42:06;;;;;;;1.17;1.07;;;12.30;27.20;;;;;;10490511;28;20227;-75
2023/12/26 00:47:13;;;;;;;1.17;0.90;;;12.20;27.10;;;;;;10490233;28;20651;-74
2023/12/26 00:52:16;;;;;;;1.20;1.10;;;12.20;27.00;;;;;;10490226;28;20243;-75
2023/12/26 00:57:19;;;;;;;1.00;0.90;;;12.20;27.10;;;;;;10488766;28;20252;-75
2023/12/26 01:02:25;;;;;;;1.40;1.20;;;12.20;27.20;;;;;;10489397;28;20224;-74
2023/12/26 01:07:28;;;;;;;1.23;1.10;;;12.10;27.20;;;;;;10489320;28;20232;-74
2023/12/26 01:12:32;;;;;;;1.43;1.13;;;12.10;27.20;;;;;;10489641;28;20258;-75
2023/12/26 01:17:36;;;;;;;1.60;1.13;;;12.10;27.40;;;;;;10489118;28;20232;-74
2023/12/26 01:22:40;;;;;;;1.30;1.20;;;12.00;27.40;;;;;;10489270;28;20734;-74
2023/12/26 01:27:43;;;;;;;1.60;1.10;;;11.90;27.40;;;;;;10488541;28;20282;-75
2023/12/26 01:32:48;;;;;;;2.50;1.10;;;11.90;27.50;;;;;;10489001;28;20243;-75
2023/12/26 01:37:51;;;;;;;1.73;1.20;;;11.80;27.50;;;;;;10488588;28;20262;-75
2023/12/26 01:42:55;;;;;;;2.00;1.33;;;11.80;27.50;;;;;;10488797;28;20305;-75
2023/12/26 01:48:02;;;;;;;1.57;1.00;;;11.80;27.60;;;;;;10488480;28;20223;-75
2023/12/26 01:53:05;;;;;;;1.10;1.10;;;11.80;27.60;;;;;;10488270;28;20224;-75
2023/12/26 01:58:09;;;;;;;1.30;1.00;;;11.80;27.60;;;;;;10487974;28;20244;-75
2023/12/26 02:03:13;;;;;;;1.10;1.00;;;11.80;27.70;;;;;;10488002;28;20688;-74
2023/12/26 02:08:17;;;;;;;1.13;1.00;;;11.80;27.70;;;;;;10493671;28;20271;-75
2023/12/26 02:13:22;;;;;;;1.30;1.10;;;11.70;27.70;;;;;;10496324;28;20259;-74
2023/12/26 02:18:27;;;;;;;1.73;1.20;;;11.70;27.80;;;;;;10495559;28;20242;-75
2023/12/26 02:23:32;;;;;;;1.67;1.00;;;11.60;27.80;;;;;;10495404;28;20223;-75
2023/12/26 02:28:38;;;;;;;1.10;1.07;;;11.50;27.90;;;;;;10495290;28;20232;-74
2023/12/26 02:33:42;;;;;;;1.30;1.07;;;11.50;28.00;;;;;;10495192;28;20315;-74
2023/12/26 02:38:46;;;;;;;1.40;1.30;;;11.50;28.00;;;;;;10494724;28;20232;-74
2023/12/26 02:43:50;;;;;;;2.23;1.40;;;11.40;28.00;;;;;;10494844;28;20221;-75
2023/12/26 02:48:54;;;;;;;1.13;1.13;;;11.30;28.10;;;;;;10494440;28;20734;-74
2023/12/26 02:53:57;;;;;;;2.43;1.30;;;11.30;28.20;;;;;;10494432;28;20224;-75
2023/12/26 02:59:02;;;;;;;1.70;1.30;;;11.10;28.20;;;;;;10493856;28;20327;-74
2023/12/26 03:04:05;;;;;;;2.20;1.30;;;11.10;28.30;;;;;;10493651;28;20270;-74
2023/12/26 03:09:09;;;;;;;1.63;1.20;;;11.00;28.30;;;;;;10493857;28;20244;-74
2023/12/26 03:14:15;;;;;;;1.90;1.00;;;11.00;28.50;;;;;;10493389;28;20234;-75
2023/12/26 03:19:19;;;;;;;1.30;1.00;;;10.90;28.50;;;;;;10492097;28;20241;-75
2023/12/26 03:24:22;;;;;;;2.57;1.10;;;10.80;28.50;;;;;;10493150;28;20289;-75
2023/12/26 03:29:27;;;;;;;1.97;1.10;;;10.80;28.90;;;;;;10492600;28;20256;-74
2023/12/26 03:34:31;;;;;;;1.50;1.13;;;10.70;28.80;;;;;;10492660;28;20252;-74
2023/12/26 03:39:34;;;;;;;1.60;1.30;;;10.60;28.70;;;;;;10492588;28;20228;-75
2023/12/26 03:44:39;;;;;;;1.33;1.10;;;10.60;28.70;;;;;;10492542;28;20228;-75
2023/12/26 03:49:42;;;;;;;1.10;1.00;;;10.60;28.70;;;;;;10492106;28;20282;-74
2023/12/26 03:54:46;;;;;;;1.57;1.10;;;10.50;28.70;;;;;;10491861;28;20228;-75
2023/12/26 03:59:50;;;;;;;1.20;1.10;;;10.50;28.70;;;;;;10491587;28;20662;-74
2023/12/26 04:04:53;;;;;;;1.93;1.07;;;10.40;28.60;;;;;;10491572;28;20239;-74
2023/12/26 04:09:57;;;;;;;2.57;1.27;;;10.40;28.60;;;;;;10491621;28;20316;-74
2023/12/26 04:15:02;;;;;;;1.47;1.00;;;10.30;28.70;;;;;;10491203;28;20220;-74
2023/12/26 04:20:06;;;;;;;2.13;1.27;;;10.30;29.00;;;;;;10490451;28;20325;-74
2023/12/26 04:25:09;;;;;;;1.57;1.20;;;10.30;28.90;;;;;;10490861;28;20267;-74
2023/12/26 04:30:14;;;;;;;2.37;1.30;;;10.20;29.00;;;;;;10490446;28;20286;-74
2023/12/26 04:35:18;;;;;;;2.70;1.20;;;10.20;29.30;;;;;;10490354;28;20315;-76
2023/12/26 04:40:21;;;;;;;2.20;1.10;;;10.20;29.20;;;;;;10490047;28;20240;-75
2023/12/26 04:45:26;;;;;;;1.83;1.20;;;10.10;29.40;;;;;;10489881;28;20278;-74
2023/12/26 04:50:30;;;;;;;1.63;1.07;;;10.10;29.60;;;;;;10489922;28;20232;-75
2023/12/26 04:55:33;;;;;;;2.77;1.30;;;10.10;29.50;;;;;;10490114;28;20302;-74
2023/12/26 05:00:40;;;;;;;1.40;1.13;;;10.00;29.60;;;;;;10489691;28;20240;-74
2023/12/26 05:05:43;;;;;;;2.63;1.30;;;10.00;30.00;;;;;;10489522;28;20228;-74
2023/12/26 05:10:47;;;;;;;1.43;1.20;;;9.90;30.50;;;;;;10489297;28;20796;-74
2023/12/26 05:15:51;;;;;;;1.30;1.20;;;9.90;30.60;;;;;;10488888;28;20307;-74
2023/12/26 05:20:55;;;;;;;2.07;1.40;;;9.90;31.20;;;;;;10488897;28;20230;-74
2023/12/26 05:25:59;;;;;;;1.67;1.30;;;9.80;31.20;;;;;;10488541;28;20238;-75
2023/12/26 05:31:18;;;;;;;1.50;1.40;;;9.80;31.30;;;;;;10488599;28;20236;-74
2023/12/26 05:36:22;;;;;;;1.40;1.20;;;9.80;31.60;;;;;;10488167;28;20232;-73
2023/12/26 05:41:25;;;;;;;2.60;1.30;;;9.70;31.20;;;;;;10493785;28;20239;-74
2023/12/26 05:46:33;;;;;;;2.63;1.10;;;9.70;31.50;;;;;;10502059;28;20656;-73
2023/12/26 05:51:36;;;;;;;1.80;1.20;;;9.70;32.20;;;;;;10501973;28;20232;-74
2023/12/26 05:56:40;;;;;;;2.10;0.97;;;9.70;31.80;;;;;;10502023;28;20779;-74
2023/12/26 06:01:48;;;;;;;1.97;1.30;;;9.80;31.90;;;;;;10501768;28;20232;-74
2023/12/26 06:06:51;;;;;;;1.73;1.30;;;9.80;32.50;;;;;;10501480;28;20696;-74
2023/12/26 06:11:54;;;;;;;1.77;1.37;;;9.90;32.10;;;;;;10501606;28;20260;-74
2023/12/26 06:17:00;;;;;;;2.23;1.30;;;9.90;32.20;;;;;;10501212;28;20567;-74
2023/12/26 06:22:04;;;;;;;2.03;1.03;;;9.90;32.50;;;;;;10501191;28;20224;-75
2023/12/26 06:27:07;;;;;;;2.03;1.40;;;9.80;32.50;;;;;;10501354;28;20243;-74
2023/12/26 06:32:12;;;;;;;1.40;1.20;;;9.80;32.60;;;;;;10501392;28;20281;-74
2023/12/26 06:37:15;;;;;;;2.50;1.50;;;9.80;33.10;;;;;;10501376;28;20232;-74
2023/12/26 06:42:18;;;;;;;1.80;1.20;;;9.80;33.10;;;;;;10501257;28;20232;-75
2023/12/26 06:47:23;;;;;;;1.40;1.30;;;9.80;33.20;;;;;;10501369;28;20240;-74
2023/12/26 06:52:27;;;;;;;2.13;1.60;;;9.70;33.30;;;;;;10499048;28;20231;-74
2023/12/26 06:57:30;;;;;;;2.97;1.50;;;9.80;33.20;;;;;;10494450;28;20260;-75
2023/12/26 07:02:34;;;;;;;3.20;1.43;;;9.80;33.20;;;;;;10494241;28;20228;-75
2023/12/26 07:07:38;;;;;;;2.53;1.47;;;9.80;33.50;;;;;;10494295;28;20238;-75
2023/12/26 07:12:41;;;;;;;2.30;1.20;;;9.80;33.50;;;;;;10494089;28;20278;-75
2023/12/26 07:17:46;;;;;;;2.27;1.47;;;9.80;33.30;;;;;;10493830;28;20660;-74
2023/12/26 07:22:49;;;;;;;3.80;1.77;;;9.80;33.80;;;;;;10493608;28;20244;-74
2023/12/26 07:27:52;;;;;;;3.90;1.80;;;9.80;33.60;;;;;;10493101;28;20309;-75
2023/12/26 07:32:57;;;;;;;2.07;1.40;;;9.80;33.60;;;;;;10493229;28;20719;-74
2023/12/26 07:38:01;;;;;;;1.83;1.40;;;9.90;34.00;;;;;;10492772;28;20319;-74
2023/12/26 07:43:04;;;;;;;2.50;1.60;;;9.90;33.70;;;;;;10492582;28;20230;-74
2023/12/26 07:48:10;;;;;;;2.57;1.60;;;9.90;33.80;;;;;;10492538;28;20821;-77
2023/12/26 07:53:14;;;;;;;2.03;1.50;;;10.00;33.00;;;;;;10492421;28;20240;-74
2023/12/26 07:58:17;;;;;;;3.33;1.70;;;10.10;33.00;;;;;;10490903;28;20250;-75
2023/12/26 08:03:22;;;;;;;2.37;1.50;;;10.20;33.00;;;;;;10491319;28;20236;-75
2023/12/26 08:08:25;;;;;;;2.07;1.50;;;10.30;33.20;;;;;;10491879;28;20290;-75
2023/12/26 08:13:29;;;;;;;2.43;1.43;;;10.50;33.00;;;;;;10491737;28;20224;-74
2023/12/26 08:18:34;;;;;;;4.50;3.37;;;10.60;32.90;;;;;;10491378;28;20255;-74
2023/12/26 08:23:37;;;;;;;2.40;1.67;;;10.70;32.80;;;;;;10491474;28;20225;-74
2023/12/26 08:28:41;;;;;;;2.83;1.53;;;10.80;32.60;;;;;;10490493;28;20224;-74
2023/12/26 08:33:46;;;;;;;1.90;1.50;;;10.80;32.60;;;;;;10490986;28;20270;-74
2023/12/26 08:38:50;;;;;;;2.80;1.53;;;10.80;32.60;;;;;;10490613;28;20240;-74
2023/12/26 08:43:53;;;;;;;1.80;1.30;;;10.90;32.50;;;;;;10490210;28;20715;-74
2023/12/26 08:48:57;;;;;;;3.60;1.93;;;10.90;32.40;;;;;;10490347;28;20315;-75
2023/12/26 08:54:01;;;;;;;2.00;1.50;;;10.90;32.60;;;;;;10490183;28;20255;-74
2023/12/26 08:59:04;;;;;;;2.83;1.77;;;10.90;32.50;;;;;;10489507;28;20607;-74
2023/12/26 09:04:09;;;;;;;3.90;2.17;;;10.90;32.40;;;;;;10489801;28;20803;-74
2023/12/26 09:09:17;;;;;;;2.80;1.87;;;10.90;32.60;;;;;;10489152;28;20244;-76
2023/12/26 09:14:20;;;;;;;4.03;1.80;;;11.00;32.40;;;;;;10489176;28;20315;-74
2023/12/26 09:19:25;;;;;;;2.83;1.60;;;11.00;32.30;;;;;;10488908;28;20235;-74
2023/12/26 09:24:28;;;;;;;2.23;1.67;;;11.00;32.70;;;;;;10489340;28;20232;-74
2023/12/26 09:29:31;;;;;;;3.23;1.70;;;11.00;32.50;;;;;;10488953;28;20779;-74
2023/12/26 09:34:36;;;;;;;1.97;1.37;;;11.00;32.70;;;;;;10488866;28;20311;-76
2023/12/26 09:39:40;;;;;;;2.17;1.50;;;10.90;33.00;;;;;;10489488;28;20232;-75
2023/12/26 09:44:43;;;;;;;2.83;1.40;;;10.90;33.00;;;;;;10489844;28;20596;-75
2023/12/26 09:49:50;;;;;;;3.33;1.77;;;10.90;33.10;;;;;;10489567;28;20757;-75
2023/12/26 09:54:56;;;;;;;2.70;1.70;;;10.90;33.20;;;;;;10489469;28;20815;-75
2023/12/26 10:00:00;;;;;;;2.67;1.50;;;10.90;33.30;;;;;;10464643;28;20757;-76
2023/12/26 10:05:06;;;;;;;2.97;1.50;;;10.90;33.20;;;;;;10447883;28;20220;-77
2023/12/26 10:10:19;;;;;;;2.20;1.70;;;11.00;33.30;;;;;;10454319;28;20388;-76
2023/12/26 10:15:22;;;;;;;2.73;1.90;;;11.00;33.20;;;;;;10444274;28;20236;-76
2023/12/26 10:20:34;;;;;;;3.60;1.70;;;11.00;33.10;;;;;;10449532;28;20329;-76
2023/12/26 10:25:37;;;;;;;2.43;1.80;;;11.00;33.70;;;;;;10446516;28;20363;-76
2023/12/26 10:30:41;;;;;;;2.87;2.00;;;11.00;33.00;;;;;;10445709;28;20328;-76
2023/12/26 10:35:45;;;;;;;2.73;2.20;;;11.10;33.20;;;;;;10446875;28;20230;-76
2023/12/26 10:40:49;;;;;;;3.10;1.93;;;11.20;33.50;;;;;;10445720;28;20240;-77
2023/12/26 10:45:54;;;;;;;4.07;2.50;;;11.20;33.30;;;;;;10451908;28;20254;-76
2023/12/26 10:51:00;;;;;;;3.10;2.27;;;11.30;33.40;;;;;;10456799;28;20316;-76
2023/12/26 10:56:07;;;;;;;2.57;2.10;;;11.30;33.40;;;;;;10458407;28;20233;-76
2023/12/26 11:01:11;;;;;;;2.13;1.90;;;11.40;33.40;;;;;;10446280;28;20263;-77
2023/12/26 13:54:53;;;;;;;2.40;1.50;;;13.10;33.20;;;;;;10433241;28;20961;-76
2023/12/26 13:59:56;;;;;;;2.20;1.50;;;13.10;33.00;;;;;;10443559;28;20237;-76
2023/12/26 14:05:00;;;;;;;3.70;1.80;;;13.10;33.00;;;;;;10445464;28;20220;-76
2023/12/26 14:10:05;;;;;;;2.13;1.50;;;13.10;33.00;;;;;;10453533;28;20276;-76
2023/12/26 14:15:08;;;;;;;2.70;1.80;;;13.10;33.10;;;;;;10449528;28;20642;-76
2023/12/26 14:20:11;;;;;;;2.83;1.40;;;13.10;33.10;;;;;;10446304;28;20237;-77
2023/12/26 14:25:16;;;;;;;4.20;2.50;;;13.10;33.10;;;;;;10449660;28;20229;-76
2023/12/26 14:30:20;;;;;;;2.07;1.50;;;13.10;33.20;;;;;;10448015;28;20240;-76
2023/12/26 14:35:23;;;;;;;3.27;1.80;;;13.10;33.20;;;;;;10442220;28;20239;-76
2023/12/26 14:40:28;;;;;;;2.87;1.93;;;13.00;33.20;;;;;;10445403;28;20271;-76
2023/12/26 14:45:31;;;;;;;3.40;2.13;;;13.10;33.40;;;;;;10449127;28;20225;-76
2023/12/26 14:50:35;;;;;;;2.30;1.97;;;13.10;33.20;;;;;;10447197;28;20226;-76
2023/12/26 14:55:40;;;;;;;2.40;2.20;;;13.10;33.30;;;;;;10444304;28;20241;-76
2023/12/26 15:00:43;;;;;;;2.40;1.80;;;13.10;33.40;;;;;;10452963;28;20307;-76
2023/12/26 15:05:47;;;;;;;2.60;1.50;;;13.10;33.30;;;;;;10440267;28;20235;-76
2023/12/26 15:10:53;;;;;;;2.63;1.70;;;13.10;33.30;;;;;;10445214;28;20229;-77
2023/12/26 15:15:56;;;;;;;1.70;1.50;;;13.20;33.50;;;;;;10445328;28;20282;-76
2023/12/26 15:21:02;;;;;;;1.60;1.50;;;13.20;33.40;;;;;;10452492;28;20229;-77
2023/12/26 15:26:14;;;;;;;2.20;1.73;;;13.10;33.60;;;;;;10453552;28;20316;-76
2023/12/26 15:31:20;;;;;;;3.77;2.20;;;13.10;33.80;;;;;;10444993;28;20225;-77
2023/12/26 15:36:25;;;;;;;3.20;2.00;;;13.00;33.50;;;;;;10447960;28;20293;-76
2023/12/26 15:41:30;;;;;;;2.93;2.03;;;13.10;33.60;;;;;;10444422;28;20248;-76
2023/12/26 15:46:33;;;;;;;2.03;1.50;;;13.00;33.70;;;;;;10446332;28;20619;-76
2023/12/26 15:51:36;;;;;;;2.43;1.57;;;13.00;33.50;;;;;;10443087;28;20229;-76
2023/12/26 15:56:41;;;;;;;2.67;1.77;;;13.00;33.60;;;;;;10448948;28;20247;-76
2023/12/26 16:01:47;;;;;;;2.13;1.60;;;13.00;33.70;;;;;;10448178;28;20261;-76
2023/12/26 16:06:52;;;;;;;3.03;1.70;;;13.00;33.80;;;;;;10453819;28;20228;-76
2023/12/26 16:11:57;;;;;;;2.87;2.07;;;13.00;33.60;;;;;;10445639;28;20221;-76
2023/12/26 16:17:00;;;;;;;2.87;2.30;;;13.00;33.60;;;;;;10450775;28;20866;-77
2023/12/26 16:22:04;;;;;;;3.47;1.83;;;13.00;33.50;;;;;;10448675;28;20228;-77
2023/12/26 16:27:08;;;;;;;2.90;2.07;;;13.00;33.50;;;;;;10444060;28;20288;-76
2023/12/26 16:32:14;;;;;;;3.70;2.37;;;13.00;33.80;;;;;;10446876;28;20272;-76
2023/12/26 16:37:18;;;;;;;2.57;2.00;;;13.00;33.70;;;;;;10441984;28;21119;-76
2023/12/26 16:42:23;;;;;;;2.83;2.10;;;13.00;33.70;;;;;;10440310;28;20296;-76
2023/12/26 16:47:27;;;;;;;3.83;2.47;;;12.90;33.90;;;;;;10438529;28;20260;-76
2023/12/26 16:52:30;;;;;;;3.30;2.10;;;12.90;33.80;;;;;;10446604;28;20267;-76
2023/12/26 16:57:35;;;;;;;3.53;2.23;;;12.90;33.90;;;;;;10448019;28;20260;-76
2023/12/26 17:02:38;;;;;;;2.97;2.20;;;12.90;34.00;;;;;;10439945;28;20335;-76
2023/12/26 17:07:42;;;;;;;4.23;2.47;;;12.80;33.80;;;;;;10448544;28;20253;-76
2023/12/26 17:12:48;;;;;;;6.70;3.20;;;12.80;33.90;;;;;;10447566;28;20236;-76
2023/12/26 17:17:51;;;;;;;4.33;2.90;;;12.80;34.10;;;;;;10447375;28;20663;-76
2023/12/26 17:22:54;;;;;;;5.67;2.43;;;12.70;34.00;;;;;;10443703;28;20271;-76
2023/12/26 17:28:01;;;;;;;2.80;2.53;;;12.80;34.00;;;;;;10441247;28;20296;-76
2023/12/26 17:33:05;;;;;;;6.47;2.33;;;12.70;34.20;;;;;;10434666;28;20294;-76
2023/12/26 17:38:08;;;;;;;3.57;2.67;;;12.80;34.10;;;;;;10439541;28;20645;-77
2023/12/26 17:43:13;;;;;;;4.77;2.40;;;12.80;34.80;;;;;;10442503;28;20240;-76
2023/12/26 17:48:16;;;;;;;4.17;2.40;;;12.80;34.20;;;;;;10440443;28;20257;-76
2023/12/26 17:53:20;;;;;;;3.60;2.13;;;12.80;34.20;;;;;;10446286;28;20225;-77
2023/12/26 17:58:28;;;;;;;4.47;3.30;;;12.70;34.20;;;;;;10442126;28;20230;-76
2023/12/26 18:03:32;;;;;;;2.93;2.20;;;12.80;34.40;;;;;;10442314;28;20232;-76
2023/12/26 18:08:38;;;;;;;2.50;2.13;;;12.80;34.30;;;;;;10442486;28;20774;-76
2023/12/26 18:13:43;;;;;;;4.27;2.40;;;12.70;34.20;;;;;;10448844;28;20249;-76
2023/12/26 18:18:46;;;;;;;3.57;2.20;;;12.70;34.30;;;;;;10448977;28;20228;-76
2023/12/26 18:23:50;;;;;;;3.13;2.00;;;12.70;34.30;;;;;;10444424;28;20294;-76
2023/12/26 18:28:55;;;;;;;3.17;1.83;;;12.70;34.30;;;;;;10443275;28;20324;-76
2023/12/26 18:33:58;;;;;;;3.33;2.30;;;12.70;34.50;;;;;;10444042;28;20229;-76
2023/12/26 18:39:02;;;;;;;2.30;2.10;;;12.70;34.50;;;;;;10437555;28;20233;-76
2023/12/26 18:44:08;;;;;;;4.23;2.10;;;12.70;34.40;;;;;;10442467;28;20229;-76
2023/12/26 18:49:12;;;;;;;2.00;1.77;;;12.70;34.50;;;;;;10445754;28;20308;-76
2023/12/26 18:54:16;;;;;;;4.33;3.40;;;12.80;34.50;;;;;;10449265;28;20237;-76
2023/12/26 18:59:21;;;;;;;3.10;2.80;;;12.80;34.40;;;;;;10454186;28;20232;-76
2023/12/26 19:04:24;;;;;;;4.53;2.90;;;12.70;34.60;;;;;;10442862;28;20229;-76
2023/12/26 19:09:28;;;;;;;4.63;2.80;;;12.70;34.50;;;;;;10448707;28;20653;-76
2023/12/26 19:14:32;;;;;;;3.53;2.70;;;12.70;34.70;;;;;;10446117;28;20247;-76
2023/12/26 19:19:36;;;;;;;5.10;3.60;;;12.70;34.80;;;;;;10449738;28;21198;-77
2023/12/26 19:24:39;;;;;;;3.53;2.80;;;12.70;34.70;;;;;;10441313;28;20272;-76
2023/12/26 19:29:44;;;;;;;4.47;2.90;;;12.70;34.60;;;;;;10445447;28;20275;-76
2023/12/26 19:34:48;;;;;;;4.00;2.80;;;12.70;34.90;;;;;;10446474;28;20232;-76
2023/12/26 19:39:51;;;;;;;2.90;2.50;;;12.80;34.60;;;;;;10446377;28;20236;-76
2023/12/26 19:44:56;;;;;;;5.47;2.17;;;12.80;34.60;;;;;;10444058;28;20226;-76
2023/12/26 19:50:00;;;;;;;2.47;2.20;;;12.80;34.80;;;;;;10443377;28;20291;-76
2023/12/26 19:55:04;;;;;;;3.60;2.30;;;12.80;34.50;;;;;;10448935;28;20227;-76
2023/12/26 20:00:12;;;;;;;5.53;3.63;;;12.80;34.60;;;;;;10443999;28;20225;-76
2023/12/26 20:05:17;;;;;;;10.33;7.30;;;12.80;34.90;;;;;;10449110;28;20719;-76
2023/12/26 20:10:20;;;;;;;4.60;3.17;;;12.80;34.70;;;;;;10440141;28;20233;-76
2023/12/26 20:15:25;;;;;;;4.03;2.77;;;12.70;34.80;;;;;;10441012;28;20252;-77
2023/12/26 20:20:28;;;;;;;4.97;2.80;;;12.50;35.00;;;;;;10444397;28;20260;-76
2023/12/26 20:25:32;;;;;;;20.63;15.33;;;12.50;34.90;;;;;;10450936;28;20244;-76
2023/12/26 20:30:36;;;;;;;9.00;6.37;;;12.40;35.10;;;;;;10441959;28;20232;-76
2023/12/26 20:35:40;;;;;;;5.40;3.53;;;12.30;35.50;;;;;;10441066;28;20250;-76
2023/12/26 20:40:43;;;;;;;9.07;5.87;;;12.20;35.40;;;;;;10446774;28;20235;-76
2023/12/26 20:45:48;;;;;;;10.37;6.27;;;12.10;35.40;;;;;;10443202;28;20727;-76
2023/12/26 20:50:52;;;;;;;4.63;3.73;;;12.10;35.70;;;;;;10449811;28;20735;-77
2023/12/26 20:55:56;;;;;;;6.83;6.10;;;12.10;35.70;;;;;;10438727;28;20225;-76
2023/12/26 21:01:01;;;;;;;12.27;9.03;;;12.10;35.70;;;;;;10444681;28;20229;-76
2023/12/26 21:06:05;;;;;;;5.53;3.53;;;12.10;35.80;;;;;;10439292;28;20296;-76
2023/12/26 21:11:08;;;;;;;5.33;3.47;;;12.10;35.70;;;;;;10441918;28;20232;-76
2023/12/26 21:16:17;;;;;;;6.87;5.30;;;12.00;35.60;;;;;;10437360;28;20238;-76
2023/12/26 21:21:20;;;;;;;3.83;3.00;;;12.00;36.30;;;;;;10439927;28;20229;-76
2023/12/26 21:26:27;;;;;;;3.17;2.80;;;12.00;35.60;;;;;;10444318;28;20282;-76
2023/12/26 21:31:31;;;;;;;4.37;2.80;;;12.00;35.60;;;;;;10433865;28;21051;-76
2023/12/26 21:36:35;;;;;;;3.77;2.40;;;12.00;35.90;;;;;;10442467;28;20645;-76
2023/12/26 21:41:41;;;;;;;3.83;2.30;;;12.00;35.80;;;;;;10433186;28;20237;-77
2023/12/26 21:46:46;;;;;;;3.17;2.30;;;11.90;36.30;;;;;;10441804;28;20229;-76
2023/12/26 21:51:52;;;;;;;3.10;2.07;;;11.80;36.50;;;;;;10436806;28;20229;-76
2023/12/26 21:56:55;;;;;;;2.90;1.90;;;11.80;36.20;;;;;;10443258;28;20296;-76
2023/12/26 22:02:00;;;;;;;2.87;1.90;;;11.80;36.30;;;;;;10440408;28;20240;-76
2023/12/26 22:07:04;;;;;;;2.87;1.80;;;11.80;36.70;;;;;;10439790;28;20297;-76
2023/12/26 22:12:08;;;;;;;3.40;2.00;;;11.80;36.50;;;;;;10438736;28;20235;-76
2023/12/26 22:17:14;;;;;;;3.53;1.87;;;11.80;36.50;;;;;;10445487;28;20241;-76
2023/12/26 22:22:17;;;;;;;2.37;1.97;;;11.80;36.60;;;;;;10432523;28;20257;-76
2023/12/26 22:27:23;;;;;;;2.73;2.03;;;11.80;36.50;;;;;;10445190;28;20242;-76
2023/12/26 22:32:27;;;;;;;2.47;1.90;;;11.80;36.50;;;;;;10443742;28;20665;-76
2023/12/26 22:37:30;;;;;;;2.10;1.73;;;11.80;36.70;;;;;;10448366;28;20669;-77
2023/12/26 22:42:34;;;;;;;3.57;1.87;;;11.80;36.50;;;;;;10443869;28;20703;-76
2023/12/26 22:47:39;;;;;;;3.80;2.10;;;11.80;36.50;;;;;;10441909;28;20244;-77
2023/12/26 22:52:42;;;;;;;3.37;2.00;;;11.80;36.80;;;;;;10443826;28;20824;-77
2023/12/26 22:57:45;;;;;;;3.90;2.10;;;11.80;36.50;;;;;;10441815;28;20259;-76
2023/12/26 23:02:50;;;;;;;3.40;1.90;;;11.80;36.40;;;;;;10439470;28;20301;-76
2023/12/26 23:07:54;;;;;;;5.37;1.87;;;11.80;36.50;;;;;;10447180;28;20233;-77
2023/12/26 23:12:57;;;;;;;4.03;2.00;;;11.80;36.40;;;;;;10446360;28;20232;-76
2023/12/26 23:18:02;;;;;;;2.37;1.87;;;11.90;36.40;;;;;;10442295;28;20233;-76
2023/12/26 23:23:06;;;;;;;3.33;2.00;;;11.90;36.50;;;;;;10439375;28;20225;-76
2023/12/26 23:28:09;;;;;;;4.10;2.00;;;11.90;36.30;;;;;;10445927;28;20244;-76
2023/12/26 23:33:14;;;;;;;4.23;1.90;;;11.90;36.30;;;;;;10435765;28;20226;-76
2023/12/26 23:38:17;;;;;;;3.17;1.90;;;11.90;36.50;;;;;;10446085;28;20240;-76
2023/12/26 23:43:21;;;;;;;3.23;2.00;;;11.90;36.20;;;;;;10446824;28;20245;-76
2023/12/26 23:48:25;;;;;;;2.90;1.97;;;12.00;36.20;;;;;;10445370;28;20756;-76
2023/12/26 23:53:29;;;;;;;4.33;1.80;;;11.90;36.30;;;;;;10443578;28;20221;-76
2023/12/26 23:58:32;;;;;;;3.40;2.00;;;11.90;36.20;;;;;;10445155;28;20233;-76
